createdAt,value
2023-03-31T00:00:58.122Z,11.95
2023-03-31T00:03:25.605Z,11.92
2023-03-31T00:06:01.906Z,11.91
2023-03-31T00:08:35.968Z,11.92
2023-03-31T00:11:07.746Z,11.88
2023-03-31T00:13:36.741Z,11.88
2023-03-31T00:16:09.213Z,11.86
2023-03-31T00:18:37.630Z,11.83
2023-03-31T00:21:14.963Z,11.83
2023-03-31T00:23:42.470Z,11.83
2023-03-31T00:26:09.657Z,11.80
2023-03-31T00:28:36.726Z,11.75
2023-03-31T00:31:04.388Z,11.72
2023-03-31T00:33:31.617Z,11.69
2023-03-31T00:36:02.371Z,11.68
2023-03-31T00:38:30.342Z,11.65
2023-03-31T00:40:57.750Z,11.64
2023-03-31T00:43:38.694Z,11.63
2023-03-31T00:46:27.697Z,11.65
2023-03-31T00:48:58.227Z,11.64
2023-03-31T00:51:32.147Z,11.65
2023-03-31T00:54:05.097Z,11.63
2023-03-31T00:56:45.034Z,11.63
2023-03-31T00:59:14.040Z,11.62
2023-03-31T01:01:46.219Z,11.62
2023-03-31T01:04:16.522Z,11.63
2023-03-31T01:07:00.978Z,11.65
2023-03-31T01:09:35.073Z,11.66
2023-03-31T01:12:06.417Z,11.65
2023-03-31T01:14:34.184Z,11.67
2023-03-31T01:17:02.776Z,11.67
2023-03-31T01:20:13.936Z,11.70
2023-03-31T01:23:31.032Z,11.70
2023-03-31T01:26:38.786Z,11.70
2023-03-31T01:29:39.426Z,11.69
2023-03-31T01:32:36.965Z,11.69
2023-03-31T01:35:48.826Z,11.70
2023-03-31T01:38:53.929Z,11.71
2023-03-31T01:42:12.614Z,11.72
2023-03-31T01:45:18.323Z,11.73
2023-03-31T01:47:58.240Z,11.74
2023-03-31T01:50:38.350Z,11.76
2023-03-31T01:53:40.463Z,11.77
2023-03-31T01:56:13.495Z,11.79
2023-03-31T01:58:59.261Z,11.79
2023-03-31T02:01:57.430Z,11.77
2023-03-31T02:04:37.634Z,11.78
2023-03-31T02:07:31.992Z,11.77
2023-03-31T02:10:03.982Z,11.76
2023-03-31T02:12:34.097Z,11.75
2023-03-31T02:15:05.213Z,11.74
2023-03-31T02:17:33.074Z,11.74
2023-03-31T02:20:06.423Z,11.70
2023-03-31T02:22:37.937Z,11.78
2023-03-31T02:25:10.073Z,11.75
2023-03-31T02:27:43.147Z,11.72
2023-03-31T02:30:12.190Z,11.72
2023-03-31T02:32:41.424Z,11.72
2023-03-31T02:35:17.297Z,11.71
2023-03-31T02:37:45.619Z,11.69
2023-03-31T02:40:22.961Z,11.68
2023-03-31T02:42:50.440Z,11.67
2023-03-31T02:45:46.889Z,11.70
2023-03-31T02:48:27.691Z,11.68
2023-03-31T02:51:16.516Z,11.69
2023-03-31T02:54:07.604Z,11.70
2023-03-31T02:56:55.900Z,11.68
2023-03-31T03:00:10.402Z,11.69
2023-03-31T03:03:09.740Z,11.68
2023-03-31T03:06:06.478Z,11.67
2023-03-31T03:08:42.476Z,11.67
2023-03-31T03:11:46.730Z,11.67
2023-03-31T03:14:28.519Z,11.65
2023-03-31T03:17:17.889Z,11.63
2023-03-31T03:19:50.752Z,11.64
2023-03-31T03:22:17.976Z,11.64
2023-03-31T03:24:45.179Z,11.65
2023-03-31T03:27:12.220Z,11.67
2023-03-31T03:29:39.771Z,11.64
2023-03-31T03:32:07.047Z,11.64
2023-03-31T03:34:34.237Z,11.64
2023-03-31T03:37:01.328Z,11.65
2023-03-31T03:39:28.481Z,11.65
2023-03-31T03:41:55.681Z,11.65
2023-03-31T03:44:22.716Z,11.65
2023-03-31T03:46:49.895Z,11.63
2023-03-31T03:49:17.250Z,11.62
2023-03-31T03:51:44.378Z,11.59
2023-03-31T03:54:12.634Z,11.56
2023-03-31T03:56:39.700Z,11.55
2023-03-31T03:59:07.103Z,11.55
2023-03-31T04:01:34.142Z,11.54
2023-03-31T04:04:01.203Z,11.53
2023-03-31T04:06:28.309Z,11.51
2023-03-31T04:08:55.355Z,11.49
2023-03-31T04:11:23.198Z,11.49
2023-03-31T04:13:50.238Z,11.48
2023-03-31T04:16:17.331Z,11.49
2023-03-31T04:18:44.596Z,11.49
2023-03-31T04:21:15.861Z,11.49
2023-03-31T04:23:46.898Z,11.47
2023-03-31T04:26:16.830Z,11.48
2023-03-31T04:28:47.017Z,11.47
2023-03-31T04:31:16.690Z,11.45
2023-03-31T04:33:46.362Z,11.45
2023-03-31T04:36:19.663Z,11.45
2023-03-31T04:38:51.006Z,11.46
2023-03-31T04:41:18.897Z,11.45
2023-03-31T04:43:46.200Z,11.41
2023-03-31T04:46:13.824Z,11.39
2023-03-31T04:48:41.277Z,11.37
2023-03-31T04:51:09.491Z,11.36
2023-03-31T04:53:36.759Z,11.36
2023-03-31T04:56:04.496Z,11.35
2023-03-31T04:58:31.691Z,11.35
2023-03-31T05:00:58.911Z,11.34
2023-03-31T05:03:26.553Z,11.34
2023-03-31T05:05:53.769Z,11.33
2023-03-31T05:08:21.279Z,11.30
2023-03-31T05:10:48.364Z,11.27
2023-03-31T05:13:16.010Z,11.24
2023-03-31T05:15:45.096Z,11.24
2023-03-31T05:18:12.290Z,11.23
2023-03-31T05:20:39.460Z,11.20
2023-03-31T05:23:07.022Z,11.18
2023-03-31T05:25:34.573Z,11.17
2023-03-31T05:28:02.561Z,11.19
2023-03-31T05:30:29.990Z,11.19
2023-03-31T05:32:57.463Z,11.20
2023-03-31T05:35:24.947Z,11.22
2023-03-31T05:37:52.038Z,11.24
2023-03-31T05:40:19.361Z,11.28
2023-03-31T05:42:46.409Z,11.31
2023-03-31T05:45:13.741Z,11.32
2023-03-31T05:47:40.843Z,11.33
2023-03-31T05:50:09.398Z,11.35
2023-03-31T05:52:36.931Z,11.34
2023-03-31T05:55:07.985Z,11.31
2023-03-31T05:57:34.988Z,11.32
2023-03-31T06:00:03.753Z,11.31
2023-03-31T06:02:31.405Z,11.31
2023-03-31T06:04:58.893Z,11.31
2023-03-31T06:07:26.184Z,11.34
2023-03-31T06:09:53.461Z,11.33
2023-03-31T06:12:20.607Z,11.33
2023-03-31T06:14:47.621Z,11.35
2023-03-31T06:17:14.594Z,11.37
2023-03-31T06:19:41.770Z,11.40
2023-03-31T06:22:08.809Z,11.44
2023-03-31T06:24:35.838Z,11.45
2023-03-31T06:27:04.166Z,11.47
2023-03-31T06:29:31.285Z,11.49
2023-03-31T06:31:58.943Z,11.49
2023-03-31T06:34:26.293Z,11.50
2023-03-31T06:36:53.551Z,11.54
2023-03-31T06:39:20.775Z,11.57
2023-03-31T06:41:47.950Z,11.61
2023-03-31T06:44:16.747Z,11.63
2023-03-31T06:46:44.237Z,11.65
2023-03-31T06:49:11.538Z,11.69
2023-03-31T06:51:38.660Z,11.70
2023-03-31T06:54:06.508Z,11.71
2023-03-31T06:56:33.836Z,11.69
2023-03-31T06:59:01.065Z,11.67
2023-03-31T07:01:28.233Z,11.64
2023-03-31T07:03:55.565Z,11.61
2023-03-31T07:06:22.576Z,11.57
2023-03-31T07:08:49.659Z,11.56
2023-03-31T07:11:16.752Z,11.56
2023-03-31T07:13:43.838Z,11.55
2023-03-31T07:16:13.834Z,11.57
2023-03-31T07:18:42.140Z,11.57
2023-03-31T07:21:10.245Z,11.60
2023-03-31T07:23:38.011Z,11.64
2023-03-31T07:26:06.472Z,11.71
2023-03-31T07:28:33.886Z,11.77
2023-03-31T07:31:01.304Z,11.93
2023-03-31T07:33:28.611Z,12.09
2023-03-31T07:36:08.232Z,12.32
2023-03-31T07:38:45.784Z,12.61
2023-03-31T07:41:16.549Z,12.77
2023-03-31T07:43:44.244Z,12.82
2023-03-31T07:46:27.250Z,12.85
2023-03-31T07:48:56.820Z,12.90
2023-03-31T07:51:27.046Z,13.00
2023-03-31T07:53:54.257Z,13.12
2023-03-31T07:56:24.491Z,13.24
2023-03-31T07:58:55.314Z,13.35
2023-03-31T08:01:26.326Z,13.43
2023-03-31T08:03:55.962Z,13.50
2023-03-31T08:06:25.743Z,13.58
2023-03-31T08:08:52.973Z,13.75
2023-03-31T08:11:21.650Z,13.82
2023-03-31T08:13:49.463Z,14.03
2023-03-31T08:16:17.299Z,14.44
2023-03-31T08:18:44.541Z,14.75
2023-03-31T08:21:11.771Z,14.97
2023-03-31T08:23:38.832Z,15.08
2023-03-31T08:26:18.205Z,15.03
2023-03-31T08:28:46.476Z,14.89
2023-03-31T08:31:16.651Z,14.95
2023-03-31T08:33:44.411Z,14.97
2023-03-31T08:36:12.331Z,14.91
2023-03-31T08:38:42.242Z,14.69
2023-03-31T08:41:44.268Z,14.63
2023-03-31T08:44:22.767Z,14.66
2023-03-31T08:46:53.975Z,14.66
2023-03-31T08:49:22.527Z,14.62
2023-03-31T08:51:56.010Z,14.62
2023-03-31T08:54:46.703Z,14.71
2023-03-31T08:57:45.454Z,14.82
2023-03-31T09:00:19.933Z,14.97
2023-03-31T09:03:07.427Z,15.10
2023-03-31T09:05:57.321Z,15.23
2023-03-31T09:08:38.671Z,15.42
2023-03-31T09:11:37.217Z,15.63
2023-03-31T09:14:42.839Z,15.82
2023-03-31T09:17:39.124Z,15.91
2023-03-31T09:20:13.520Z,15.98
2023-03-31T09:22:51.257Z,15.98
2023-03-31T09:25:27.899Z,16.01
2023-03-31T09:27:59.840Z,15.99
2023-03-31T09:30:34.069Z,16.00
2023-03-31T09:33:16.303Z,16.01
2023-03-31T09:35:46.299Z,15.99
2023-03-31T09:38:15.935Z,16.03
2023-03-31T09:40:48.716Z,16.07
2023-03-31T09:43:26.541Z,16.12
2023-03-31T09:46:08.542Z,16.20
2023-03-31T09:48:40.180Z,16.28
2023-03-31T09:51:14.523Z,16.37
2023-03-31T09:53:52.619Z,16.46
2023-03-31T09:56:42.179Z,16.58
2023-03-31T09:59:34.900Z,16.72
2023-03-31T10:02:34.559Z,16.93
2023-03-31T10:05:03.538Z,17.00
2023-03-31T10:07:31.468Z,16.98
2023-03-31T10:09:58.811Z,17.00
2023-03-31T10:12:32.044Z,16.87
2023-03-31T10:15:26.430Z,16.78
2023-03-31T10:17:55.423Z,16.84
2023-03-31T10:20:43.123Z,16.86
2023-03-31T10:23:29.837Z,16.70
2023-03-31T10:25:57.432Z,16.73
2023-03-31T10:28:25.529Z,16.77
2023-03-31T10:30:57.769Z,16.75
2023-03-31T10:33:28.051Z,16.69
2023-03-31T10:36:01.129Z,16.68
2023-03-31T10:38:37.448Z,16.51
2023-03-31T10:41:04.975Z,16.38
2023-03-31T10:43:48.000Z,16.50
2023-03-31T10:46:15.050Z,16.66
2023-03-31T10:48:44.457Z,16.79
2023-03-31T10:51:20.068Z,16.83
2023-03-31T10:53:49.861Z,16.83
2023-03-31T10:56:26.249Z,16.72
2023-03-31T10:59:15.231Z,16.49
2023-03-31T11:02:00.953Z,16.28
2023-03-31T11:04:54.134Z,16.19
2023-03-31T11:07:27.651Z,16.00
2023-03-31T11:10:21.759Z,15.88
2023-03-31T11:13:05.905Z,15.92
2023-03-31T11:15:38.832Z,16.03
2023-03-31T11:18:43.261Z,16.14
2023-03-31T11:21:34.894Z,16.22
2023-03-31T11:24:48.674Z,16.17
2023-03-31T11:27:36.552Z,16.14
2023-03-31T11:30:24.852Z,15.99
2023-03-31T11:33:23.560Z,15.86
2023-03-31T11:36:12.341Z,15.81
2023-03-31T11:39:11.279Z,15.82
2023-03-31T11:41:49.699Z,15.93
2023-03-31T11:44:20.427Z,15.84
2023-03-31T11:47:00.103Z,15.81
2023-03-31T11:49:55.425Z,15.82
2023-03-31T11:52:37.696Z,15.82
2023-03-31T11:55:22.008Z,16.32
2023-03-31T11:58:04.769Z,16.91
2023-03-31T12:00:52.816Z,17.27
2023-03-31T12:04:17.620Z,17.60
2023-03-31T12:06:47.223Z,17.72
2023-03-31T12:09:48.804Z,17.65
2023-03-31T12:12:32.276Z,17.63
2023-03-31T12:15:14.678Z,17.60
2023-03-31T12:17:49.584Z,17.67
2023-03-31T12:20:41.680Z,17.90
2023-03-31T12:23:19.940Z,17.93
2023-03-31T12:26:11.497Z,18.07
2023-03-31T12:28:40.691Z,18.14
2023-03-31T12:31:13.516Z,18.16
2023-03-31T12:34:00.851Z,18.28
2023-03-31T12:37:01.389Z,18.45
2023-03-31T12:39:54.833Z,18.46
2023-03-31T12:43:03.424Z,18.58
2023-03-31T12:45:39.437Z,18.71
2023-03-31T12:48:24.469Z,18.59
2023-03-31T12:50:54.097Z,18.31
2023-03-31T12:54:09.814Z,17.92
2023-03-31T12:57:04.559Z,17.97
2023-03-31T12:59:41.743Z,17.70
2023-03-31T13:02:11.638Z,17.44
2023-03-31T13:04:39.448Z,17.16
2023-03-31T13:07:28.330Z,17.27
2023-03-31T13:10:21.538Z,17.60
2023-03-31T13:13:06.701Z,17.27
2023-03-31T13:15:34.108Z,17.22
2023-03-31T13:18:07.395Z,17.41
2023-03-31T13:20:40.965Z,17.47
2023-03-31T13:23:22.716Z,17.46
2023-03-31T13:25:52.188Z,17.20
2023-03-31T13:28:21.949Z,16.86
2023-03-31T13:30:54.065Z,16.60
2023-03-31T13:33:57.773Z,16.19
2023-03-31T13:36:58.675Z,15.57
2023-03-31T13:40:32.961Z,15.37
2023-03-31T13:44:00.139Z,15.45
2023-03-31T13:46:51.189Z,15.64
2023-03-31T13:49:47.112Z,15.82
2023-03-31T13:52:20.969Z,15.96
2023-03-31T13:55:24.141Z,16.10
2023-03-31T13:58:35.035Z,16.13
2023-03-31T14:01:34.257Z,16.25
2023-03-31T14:04:48.883Z,16.44
2023-03-31T14:07:23.155Z,16.31
2023-03-31T14:09:54.143Z,16.16
2023-03-31T14:12:25.780Z,15.97
2023-03-31T14:14:56.284Z,15.76
2023-03-31T14:17:38.233Z,15.64
2023-03-31T14:20:55.189Z,15.42
2023-03-31T14:23:38.684Z,15.17
2023-03-31T14:26:36.926Z,15.13
2023-03-31T14:29:36.296Z,15.23
2023-03-31T14:32:38.705Z,15.13
2023-03-31T14:35:38.669Z,15.02
2023-03-31T14:38:20.775Z,14.91
2023-03-31T14:40:56.330Z,14.80
2023-03-31T14:43:37.021Z,14.87
2023-03-31T14:46:09.757Z,15.03
2023-03-31T14:48:47.992Z,15.26
2023-03-31T14:51:19.082Z,15.30
2023-03-31T14:53:46.309Z,15.51
2023-03-31T14:56:20.816Z,15.70
2023-03-31T14:58:54.418Z,15.83
2023-03-31T15:01:35.850Z,15.69
2023-03-31T15:04:13.805Z,15.51
2023-03-31T15:06:44.672Z,15.39
2023-03-31T15:09:23.746Z,15.46
2023-03-31T15:12:00.518Z,15.60
2023-03-31T15:14:54.972Z,15.68
2023-03-31T15:17:28.177Z,15.65
2023-03-31T15:19:58.794Z,15.46
2023-03-31T15:22:29.059Z,15.31
2023-03-31T15:24:57.309Z,15.15
2023-03-31T15:27:38.080Z,15.07
2023-03-31T15:30:18.974Z,14.96
2023-03-31T15:32:46.954Z,14.82
2023-03-31T15:35:33.271Z,14.64
2023-03-31T15:38:04.177Z,14.57
2023-03-31T15:40:41.080Z,14.55
2023-03-31T15:43:28.757Z,14.48
2023-03-31T15:46:00.041Z,14.37
2023-03-31T15:48:48.878Z,14.30
2023-03-31T15:51:30.402Z,14.24
2023-03-31T15:53:57.730Z,14.19
2023-03-31T15:56:44.715Z,14.15
2023-03-31T15:59:37.934Z,14.00
2023-03-31T16:02:19.182Z,13.91
2023-03-31T16:04:58.827Z,13.90
2023-03-31T16:07:33.730Z,13.86
2023-03-31T16:10:22.201Z,13.78
2023-03-31T16:13:01.991Z,13.71
2023-03-31T16:15:41.213Z,13.62
2023-03-31T16:18:26.159Z,13.57
2023-03-31T16:21:01.931Z,13.56
2023-03-31T16:23:34.123Z,13.60
2023-03-31T16:26:02.118Z,13.63
2023-03-31T16:28:37.487Z,13.66
2023-03-31T16:31:26.241Z,13.68
2023-03-31T16:33:57.197Z,13.66
2023-03-31T16:36:24.387Z,13.60
2023-03-31T16:38:55.159Z,13.59
2023-03-31T16:41:23.524Z,13.55
2023-03-31T16:43:54.274Z,13.58
2023-03-31T16:46:23.604Z,13.60
2023-03-31T16:48:51.854Z,13.59
2023-03-31T16:51:19.359Z,13.56
2023-03-31T16:53:47.817Z,13.50
2023-03-31T16:56:15.769Z,13.38
2023-03-31T16:58:43.964Z,13.25
2023-03-31T17:01:11.894Z,13.09
2023-03-31T17:03:41.713Z,12.98
2023-03-31T17:06:13.222Z,12.89
2023-03-31T17:08:40.950Z,12.85
2023-03-31T17:11:12.070Z,12.81
2023-03-31T17:13:41.707Z,12.77
2023-03-31T17:16:19.097Z,12.73
2023-03-31T17:18:51.424Z,12.75
2023-03-31T17:21:19.414Z,12.66
2023-03-31T17:23:47.863Z,12.69
2023-03-31T17:26:16.056Z,12.67
2023-03-31T17:28:43.667Z,12.63
2023-03-31T17:31:20.570Z,12.61
2023-03-31T17:33:48.327Z,12.57
2023-03-31T17:36:16.583Z,12.56
2023-03-31T17:38:43.916Z,12.51
2023-03-31T17:41:13.902Z,12.45
2023-03-31T17:43:45.848Z,12.38
2023-03-31T17:46:13.793Z,12.34
2023-03-31T17:48:43.190Z,12.35
2023-03-31T17:51:16.549Z,12.34
2023-03-31T17:53:46.203Z,12.33
2023-03-31T17:56:15.626Z,12.32
2023-03-31T17:58:42.962Z,12.29
2023-03-31T18:01:11.837Z,12.27
2023-03-31T18:03:39.235Z,12.24
2023-03-31T18:06:13.026Z,12.20
2023-03-31T18:08:42.045Z,12.20
2023-03-31T18:11:10.774Z,12.20
2023-03-31T18:13:38.844Z,12.19
2023-03-31T18:16:13.113Z,12.14
2023-03-31T18:18:41.594Z,12.10
2023-03-31T18:21:13.182Z,12.05
2023-03-31T18:23:41.803Z,12.01
2023-03-31T18:26:13.403Z,11.98
2023-03-31T18:28:41.245Z,11.94
2023-03-31T18:31:09.863Z,11.89
2023-03-31T18:33:37.389Z,11.88
2023-03-31T18:36:06.177Z,11.80
2023-03-31T18:38:34.568Z,11.80
2023-03-31T18:41:01.831Z,11.76
2023-03-31T18:43:31.400Z,11.75
2023-03-31T18:46:01.332Z,11.74
2023-03-31T18:48:29.319Z,11.77
2023-03-31T18:50:56.649Z,11.82
2023-03-31T18:53:25.345Z,11.80
2023-03-31T18:55:56.620Z,11.77
2023-03-31T18:58:25.689Z,11.79
2023-03-31T19:00:52.866Z,11.76
2023-03-31T19:03:20.423Z,11.74
2023-03-31T19:05:48.039Z,11.68
2023-03-31T19:08:15.404Z,11.67
2023-03-31T19:10:42.676Z,11.63
2023-03-31T19:13:15.921Z,11.63
2023-03-31T19:15:43.322Z,11.63
2023-03-31T19:18:15.055Z,11.63
2023-03-31T19:20:42.212Z,11.60
2023-03-31T19:23:09.599Z,11.54
2023-03-31T19:25:37.040Z,11.52
2023-03-31T19:28:04.144Z,11.53
2023-03-31T19:30:31.310Z,11.51
2023-03-31T19:32:58.480Z,11.49
2023-03-31T19:35:27.243Z,11.50
2023-03-31T19:37:54.855Z,11.50
2023-03-31T19:40:22.318Z,11.49
2023-03-31T19:42:49.369Z,11.48
2023-03-31T19:45:16.640Z,11.49
2023-03-31T19:47:43.910Z,11.49
2023-03-31T19:50:11.575Z,11.50
2023-03-31T19:52:38.839Z,11.46
2023-03-31T19:55:06.566Z,11.47
2023-03-31T19:57:33.750Z,11.47
2023-03-31T20:00:02.634Z,11.48
2023-03-31T20:02:31.761Z,11.48
2023-03-31T20:04:59.103Z,11.48
2023-03-31T20:07:26.529Z,11.52
2023-03-31T20:09:53.677Z,11.52
2023-03-31T20:12:20.832Z,11.50
2023-03-31T20:14:47.973Z,11.50
2023-03-31T20:17:15.642Z,11.48
2023-03-31T20:19:43.348Z,11.44
2023-03-31T20:22:10.444Z,11.42
2023-03-31T20:24:38.545Z,11.41
2023-03-31T20:27:05.712Z,11.39
2023-03-31T20:29:32.925Z,11.38
2023-03-31T20:32:00.280Z,11.35
2023-03-31T20:34:27.696Z,11.35
2023-03-31T20:36:55.004Z,11.31
2023-03-31T20:39:22.098Z,11.30
2023-03-31T20:41:50.489Z,11.33
2023-03-31T20:44:17.553Z,11.30
2023-03-31T20:46:45.095Z,11.28
2023-03-31T20:49:12.626Z,11.27
2023-03-31T20:51:40.059Z,11.25
2023-03-31T20:54:08.381Z,11.27
2023-03-31T20:56:39.597Z,11.25
2023-03-31T20:59:11.271Z,11.27
2023-03-31T21:01:39.415Z,11.29
2023-03-31T21:04:08.989Z,11.19
2023-03-31T21:06:46.035Z,11.10
2023-03-31T21:09:15.225Z,11.08
2023-03-31T21:11:42.554Z,11.06
2023-03-31T21:14:17.403Z,11.08
2023-03-31T21:16:44.833Z,11.07
2023-03-31T21:19:12.360Z,11.08
2023-03-31T21:21:41.680Z,11.09
2023-03-31T21:24:11.640Z,11.08
2023-03-31T21:26:39.623Z,11.08
2023-03-31T21:29:07.038Z,11.05
2023-03-31T21:31:34.248Z,10.99
2023-03-31T21:34:02.798Z,11.00
2023-03-31T21:36:30.105Z,11.02
2023-03-31T21:38:57.922Z,11.05
2023-03-31T21:41:30.660Z,11.05
2023-03-31T21:44:01.706Z,11.02
2023-03-31T21:46:33.115Z,11.00
2023-03-31T21:49:01.200Z,10.99
2023-03-31T21:51:28.900Z,10.99
2023-03-31T21:53:56.638Z,10.99
2023-03-31T21:56:25.802Z,10.99
2023-03-31T21:58:53.311Z,10.97
2023-03-31T22:01:21.974Z,10.96
2023-03-31T22:03:50.958Z,10.98
2023-03-31T22:06:18.772Z,10.99
2023-03-31T22:08:46.399Z,11.00
2023-03-31T22:11:14.710Z,11.00
2023-03-31T22:13:42.585Z,10.99
2023-03-31T22:16:20.759Z,10.97
2023-03-31T22:18:50.194Z,10.98
2023-03-31T22:21:26.849Z,10.99
2023-03-31T22:23:57.981Z,10.99
2023-03-31T22:26:27.369Z,11.01
2023-03-31T22:28:55.463Z,11.01
2023-03-31T22:31:23.076Z,11.02
2023-03-31T22:33:50.487Z,11.00
2023-03-31T22:36:17.648Z,11.02
2023-03-31T22:38:45.172Z,10.98
2023-03-31T22:41:12.308Z,10.98
2023-03-31T22:43:39.832Z,10.98
2023-03-31T22:46:08.029Z,10.98
2023-03-31T22:48:35.415Z,11.00
2023-03-31T22:51:05.887Z,10.99
2023-03-31T22:53:33.582Z,11.00
2023-03-31T22:56:11.937Z,10.99
2023-03-31T22:58:39.446Z,10.99
2023-03-31T23:01:09.982Z,10.98
2023-03-31T23:03:37.535Z,10.99
2023-03-31T23:06:06.267Z,10.99
2023-03-31T23:08:35.858Z,10.99
2023-03-31T23:11:09.152Z,10.97
2023-03-31T23:13:36.540Z,10.97
2023-03-31T23:16:24.776Z,10.95
2023-03-31T23:18:53.968Z,10.95
2023-03-31T23:21:25.817Z,10.96
2023-03-31T23:23:56.587Z,10.96
2023-03-31T23:26:26.323Z,10.96
2023-03-31T23:28:54.144Z,10.95
2023-03-31T23:31:25.799Z,10.96
2023-03-31T23:33:53.382Z,10.94
2023-03-31T23:36:21.552Z,10.93
2023-03-31T23:38:50.660Z,10.92
2023-03-31T23:41:19.694Z,10.89
2023-03-31T23:43:47.168Z,10.88
2023-03-31T23:46:14.428Z,10.88
2023-03-31T23:48:41.581Z,10.90
2023-03-31T23:51:09.945Z,10.91
2023-03-31T23:53:37.705Z,10.90
2023-03-31T23:56:12.671Z,10.87
2023-03-31T23:58:42.880Z,10.86
